createdAt,value
2017-11-11T00:00:47.322Z,22.12
2017-11-11T00:02:00.104Z,21.52
2017-11-11T00:03:13.466Z,20.77
2017-11-11T00:04:26.803Z,20.32
2017-11-11T00:05:39.610Z,20.08
2017-11-11T00:06:53.174Z,19.87
2017-11-11T00:08:06.602Z,19.76
2017-11-11T00:09:19.989Z,19.58
2017-11-11T00:10:32.266Z,19.71
2017-11-11T00:11:45.600Z,19.61
2017-11-11T00:12:58.412Z,19.63
2017-11-11T00:14:11.213Z,19.66
2017-11-11T00:15:24.549Z,19.55
2017-11-11T00:16:38.451Z,19.46
2017-11-11T00:17:51.948Z,19.58
2017-11-11T00:19:05.320Z,19.48
2017-11-11T00:20:18.622Z,19.33
2017-11-11T00:21:31.430Z,19.36
2017-11-11T00:22:44.206Z,19.36
2017-11-11T00:23:57.683Z,19.39
2017-11-11T00:25:11.005Z,19.46
2017-11-11T00:26:23.812Z,19.43
2017-11-11T00:27:36.049Z,19.39
2017-11-11T00:28:49.368Z,19.47
2017-11-11T00:30:02.715Z,19.37
2017-11-11T00:31:16.057Z,19.43
2017-11-11T00:32:28.298Z,19.46
2017-11-11T00:33:41.619Z,19.48
2017-11-11T00:34:53.857Z,19.48
2017-11-11T00:36:06.683Z,19.47
2017-11-11T00:37:20.032Z,19.48
2017-11-11T00:38:32.844Z,19.5
2017-11-11T00:39:46.165Z,19.61
2017-11-11T00:40:59.020Z,19.5
2017-11-11T00:42:11.671Z,19.56
2017-11-11T00:43:24.496Z,19.44
2017-11-11T00:44:36.711Z,19.48
2017-11-11T00:45:50.025Z,19.48
2017-11-11T00:47:02.910Z,19.54
2017-11-11T00:48:16.258Z,19.47
2017-11-11T00:49:28.541Z,19.46
2017-11-11T00:50:41.404Z,19.41
2017-11-11T00:51:54.740Z,19.48
2017-11-11T00:53:08.088Z,19.47
2017-11-11T00:54:21.625Z,19.47
2017-11-11T00:55:34.943Z,19.62
2017-11-11T00:56:48.255Z,19.65
2017-11-11T00:58:01.622Z,19.69
2017-11-11T00:59:14.399Z,19.66
2017-11-11T01:00:27.736Z,19.65
2017-11-11T01:01:41.103Z,19.59
2017-11-11T01:02:54.412Z,19.62
2017-11-11T01:04:08.335Z,19.68
2017-11-11T01:05:21.657Z,19.76
2017-11-11T01:06:34.485Z,19.77
2017-11-11T01:07:47.273Z,19.68
2017-11-11T01:09:00.622Z,19.65
2017-11-11T01:10:13.953Z,19.4
2017-11-11T01:11:27.295Z,19.37
2017-11-11T01:12:41.244Z,19.18
2017-11-11T01:13:54.048Z,18.82
2017-11-11T01:15:07.613Z,18.69
2017-11-11T01:16:20.919Z,18.44
2017-11-11T01:17:34.257Z,18.36
2017-11-11T01:18:47.109Z,18.32
2017-11-11T01:20:00.475Z,18.26
2017-11-11T01:21:13.499Z,18.12
2017-11-11T01:22:26.923Z,18.14
2017-11-11T01:23:40.303Z,18.11
2017-11-11T01:24:53.729Z,18.14
2017-11-11T01:26:06.533Z,18.18
2017-11-11T01:27:19.874Z,18.17
2017-11-11T01:28:32.693Z,18.25
2017-11-11T01:29:46.003Z,18.14
2017-11-11T01:30:59.346Z,18.11
2017-11-11T01:32:11.589Z,18.11
2017-11-11T01:33:24.955Z,18.1
2017-11-11T01:34:37.736Z,18.07
2017-11-11T01:35:51.065Z,18.14
2017-11-11T01:37:04.391Z,18.14
2017-11-11T01:38:17.904Z,18.03
2017-11-11T01:39:31.217Z,18.11
2017-11-11T01:40:43.984Z,18.15
2017-11-11T01:41:57.296Z,18.15
2017-11-11T01:43:10.100Z,18.11
2017-11-11T01:44:22.902Z,18.1
2017-11-11T01:45:36.221Z,18.12
2017-11-11T01:46:49.057Z,18.05
2017-11-11T01:48:02.373Z,18.15
2017-11-11T01:49:15.158Z,18.02
2017-11-11T01:50:28.501Z,18.07
2017-11-11T01:51:41.284Z,18.11
2017-11-11T01:52:54.084Z,18.05
2017-11-11T01:54:07.397Z,18.15
2017-11-11T01:55:20.703Z,18.03
2017-11-11T01:56:33.504Z,18.05
2017-11-11T01:57:46.856Z,18.08
2017-11-11T01:59:00.203Z,18.15
2017-11-11T02:00:13.534Z,18.12
2017-11-11T02:01:26.835Z,18.03
2017-11-11T02:02:40.148Z,18.14
2017-11-11T02:03:53.559Z,18.14
2017-11-11T02:05:06.915Z,18.08
2017-11-11T02:06:20.303Z,18.11
2017-11-11T02:07:33.640Z,18.18
2017-11-11T02:08:46.994Z,18.14
2017-11-11T02:10:00.340Z,18.08
2017-11-11T02:11:13.119Z,18.15
2017-11-11T02:12:25.393Z,18.17
2017-11-11T02:13:38.747Z,18.11
2017-11-11T02:14:51.575Z,18.11
2017-11-11T02:16:04.950Z,18.12
2017-11-11T02:17:18.278Z,18.29
2017-11-11T02:18:31.068Z,18.32
2017-11-11T02:19:44.632Z,18.35
2017-11-11T02:20:57.989Z,18.35
2017-11-11T02:22:10.800Z,18.42
2017-11-11T02:23:24.129Z,18.5
2017-11-11T02:24:37.466Z,18.48
2017-11-11T02:25:50.827Z,18.33
2017-11-11T02:27:03.617Z,18.39
2017-11-11T02:28:16.955Z,18.33
2017-11-11T02:29:30.295Z,18.37
2017-11-11T02:30:43.601Z,18.33
2017-11-11T02:31:56.985Z,18.33
2017-11-11T02:33:10.321Z,18.35
2017-11-11T02:34:23.121Z,18.33
2017-11-11T02:35:36.422Z,18.32
2017-11-11T02:36:49.811Z,18.44
2017-11-11T02:38:03.154Z,18.29
2017-11-11T02:39:15.957Z,18.32
2017-11-11T02:40:29.285Z,18.33
2017-11-11T02:41:42.651Z,18.32
2017-11-11T02:42:55.511Z,18.32
2017-11-11T02:44:07.743Z,18.23
2017-11-11T02:45:21.084Z,18.25
2017-11-11T02:46:33.887Z,18.29
2017-11-11T02:47:46.187Z,18.29
2017-11-11T02:48:58.978Z,18.33
2017-11-11T02:50:12.333Z,18.33
2017-11-11T02:51:25.729Z,18.36
2017-11-11T02:52:38.571Z,18.3
2017-11-11T02:53:51.917Z,18.26
2017-11-11T02:55:04.718Z,18.23
2017-11-11T02:56:18.039Z,18.23
2017-11-11T02:57:30.825Z,18.23
2017-11-11T02:58:43.629Z,18.1
2017-11-11T02:59:57.020Z,18.14
2017-11-11T03:01:09.331Z,18.21
2017-11-11T03:02:22.205Z,18.23
2017-11-11T03:03:35.519Z,18.2
2017-11-11T03:04:48.336Z,18.15
2017-11-11T03:06:01.673Z,18.18
2017-11-11T03:07:15.072Z,18.2
2017-11-11T03:08:28.708Z,18.23
2017-11-11T03:09:41.475Z,18.21
2017-11-11T03:10:54.818Z,18.3
2017-11-11T03:12:08.149Z,18.48
2017-11-11T03:13:21.512Z,18.55
2017-11-11T03:14:34.853Z,18.63
2017-11-11T03:15:48.176Z,18.7
2017-11-11T03:17:01.182Z,18.72
2017-11-11T03:18:13.477Z,18.66
2017-11-11T03:19:26.795Z,18.63
2017-11-11T03:20:39.556Z,18.52
2017-11-11T03:21:52.456Z,18.35
2017-11-11T03:23:05.784Z,18.36
2017-11-11T03:24:19.134Z,18.33
2017-11-11T03:25:30.735Z,18.33
2017-11-11T03:26:43.788Z,18.35
2017-11-11T03:27:57.140Z,18.39
2017-11-11T03:29:10.470Z,18.33
2017-11-11T03:30:23.258Z,18.35
2017-11-11T03:31:36.022Z,18.35
2017-11-11T03:32:49.364Z,18.27
2017-11-11T03:34:02.716Z,18.33
2017-11-11T03:35:16.032Z,18.39
2017-11-11T03:36:29.437Z,18.33
2017-11-11T03:37:42.764Z,18.42
2017-11-11T03:38:56.316Z,18.3
2017-11-11T03:40:09.633Z,18.39
2017-11-11T03:41:22.968Z,18.33
2017-11-11T03:42:36.360Z,18.41
2017-11-11T03:43:49.678Z,18.42
2017-11-11T03:45:02.454Z,18.41
2017-11-11T03:46:15.771Z,18.39
2017-11-11T03:47:29.127Z,18.48
2017-11-11T03:48:41.937Z,18.44
2017-11-11T03:49:55.305Z,18.39
2017-11-11T03:51:08.105Z,18.48
2017-11-11T03:52:21.454Z,18.48
2017-11-11T03:53:33.732Z,18.54
2017-11-11T03:54:47.025Z,18.47
2017-11-11T03:55:59.863Z,18.36
2017-11-11T03:57:13.403Z,18.48
2017-11-11T03:58:26.733Z,18.45
2017-11-11T03:59:39.503Z,18.5
2017-11-11T04:00:52.840Z,18.37
2017-11-11T04:02:05.851Z,18.48
2017-11-11T04:03:18.655Z,18.41
2017-11-11T04:04:32.004Z,18.42
2017-11-11T04:05:45.344Z,18.52
2017-11-11T04:06:58.166Z,18.52
2017-11-11T04:08:11.509Z,18.52
2017-11-11T04:09:24.875Z,18.63
2017-11-11T04:10:38.249Z,18.63
2017-11-11T04:11:51.558Z,18.63
2017-11-11T04:13:04.925Z,18.51
2017-11-11T04:14:17.706Z,18.42
2017-11-11T04:15:31.055Z,18.5
2017-11-11T04:16:44.034Z,18.47
2017-11-11T04:17:57.366Z,18.41
2017-11-11T04:19:10.681Z,18.44
2017-11-11T04:20:24.049Z,18.45
2017-11-11T04:21:37.375Z,18.5
2017-11-11T04:22:50.159Z,18.44
2017-11-11T04:24:03.471Z,18.44
2017-11-11T04:25:16.273Z,18.39
2017-11-11T04:26:29.073Z,18.39
2017-11-11T04:27:42.437Z,18.44
2017-11-11T04:28:55.787Z,18.47
2017-11-11T04:30:09.114Z,18.48
2017-11-11T04:31:21.911Z,18.47
2017-11-11T04:32:35.204Z,18.45
2017-11-11T04:33:47.998Z,18.42
2017-11-11T04:35:01.295Z,18.33
2017-11-11T04:36:14.637Z,18.5
2017-11-11T04:37:27.973Z,18.41
2017-11-11T04:38:40.757Z,18.54
2017-11-11T04:39:54.090Z,18.41
2017-11-11T04:41:07.457Z,18.47
2017-11-11T04:42:20.788Z,18.47
2017-11-11T04:43:34.092Z,18.47
2017-11-11T04:44:46.873Z,18.42
2017-11-11T04:45:59.643Z,18.51
2017-11-11T04:47:12.971Z,18.54
2017-11-11T04:48:25.767Z,18.48
2017-11-11T04:49:39.035Z,18.63
2017-11-11T04:50:52.341Z,18.57
2017-11-11T04:52:05.648Z,18.5
2017-11-11T04:53:19.005Z,18.54
2017-11-11T04:54:32.318Z,18.57
2017-11-11T04:55:45.639Z,18.54
2017-11-11T04:56:58.981Z,18.47
2017-11-11T04:58:12.342Z,18.66
2017-11-11T04:59:25.706Z,18.55
2017-11-11T05:00:39.015Z,18.57
2017-11-11T05:01:51.779Z,18.54
2017-11-11T05:03:05.140Z,18.62
2017-11-11T05:04:17.469Z,18.62
2017-11-11T05:05:29.762Z,18.62
2017-11-11T05:06:43.093Z,18.63
2017-11-11T05:07:56.424Z,18.48
2017-11-11T05:09:09.744Z,18.5
2017-11-11T05:10:23.172Z,18.39
2017-11-11T05:11:36.472Z,18.39
2017-11-11T05:12:49.773Z,18.41
2017-11-11T05:14:03.094Z,18.5
2017-11-11T05:15:16.414Z,18.51
2017-11-11T05:16:29.691Z,18.52
2017-11-11T05:17:43.020Z,18.54
2017-11-11T05:18:56.353Z,18.52
2017-11-11T05:20:09.705Z,18.41
2017-11-11T05:21:22.530Z,18.45
2017-11-11T05:22:35.856Z,18.44
2017-11-11T05:23:49.398Z,18.44
2017-11-11T05:25:02.715Z,18.51
2017-11-11T05:26:16.039Z,18.55
2017-11-11T05:27:28.833Z,18.54
2017-11-11T05:28:42.159Z,18.48
2017-11-11T05:29:54.757Z,18.62
2017-11-11T05:31:08.809Z,18.44
2017-11-11T05:32:22.809Z,18.48
2017-11-11T05:33:36.271Z,18.44
2017-11-11T05:34:50.297Z,18.5
2017-11-11T05:36:04.311Z,18.48
2017-11-11T05:37:17.755Z,18.54
2017-11-11T05:38:31.810Z,18.44
2017-11-11T05:39:45.243Z,18.51
2017-11-11T05:40:59.276Z,18.42
2017-11-11T05:42:12.707Z,18.48
2017-11-11T05:43:26.752Z,18.44
2017-11-11T05:44:40.879Z,18.39
2017-11-11T05:45:54.320Z,18.57
2017-11-11T05:47:08.318Z,18.48
2017-11-11T05:48:22.353Z,18.54
2017-11-11T05:49:36.376Z,18.55
2017-11-11T05:50:49.823Z,18.54
2017-11-11T05:52:03.884Z,18.57
2017-11-11T05:53:17.927Z,18.57
2017-11-11T05:54:31.382Z,18.63
2017-11-11T05:55:45.398Z,18.57
2017-11-11T05:56:58.816Z,18.55
2017-11-11T05:58:12.842Z,18.6
2017-11-11T05:59:34.780Z,18.62
2017-11-11T06:00:48.790Z,18.57
2017-11-11T06:02:02.264Z,18.55
2017-11-11T06:03:15.761Z,18.45
2017-11-11T06:04:29.732Z,18.52
2017-11-11T06:05:43.184Z,18.44
2017-11-11T06:06:56.641Z,18.44
2017-11-11T06:08:10.149Z,18.51
2017-11-11T06:09:24.180Z,18.42
2017-11-11T06:10:38.213Z,18.54
2017-11-11T06:11:52.207Z,18.48
2017-11-11T06:13:05.075Z,18.48
2017-11-11T06:14:19.184Z,18.52
2017-11-11T06:15:33.241Z,18.54
2017-11-11T06:16:47.313Z,18.45
2017-11-11T06:18:01.336Z,18.51
2017-11-11T06:19:15.390Z,18.52
2017-11-11T06:20:28.871Z,18.52
2017-11-11T06:21:42.336Z,18.5
2017-11-11T06:22:56.654Z,18.6
2017-11-11T06:24:11.017Z,18.63
2017-11-11T06:25:25.109Z,18.57
2017-11-11T06:26:39.105Z,18.6
2017-11-11T06:27:53.126Z,18.7
2017-11-11T06:29:07.161Z,18.63
2017-11-11T06:30:20.625Z,18.65
2017-11-11T06:31:32.924Z,18.66
2017-11-11T06:32:47.008Z,18.73
2017-11-11T06:34:01.034Z,18.72
2017-11-11T06:35:15.046Z,18.73
2017-11-11T06:36:29.278Z,18.72
2017-11-11T06:37:42.743Z,18.69
2017-11-11T06:38:56.763Z,18.73
2017-11-11T06:40:10.827Z,18.67
2017-11-11T06:41:24.880Z,18.72
2017-11-11T06:42:38.921Z,18.76
2017-11-11T06:43:52.358Z,18.65
2017-11-11T06:45:06.405Z,18.76
2017-11-11T06:46:19.867Z,18.7
2017-11-11T06:47:33.877Z,18.65
2017-11-11T06:48:47.934Z,18.69
2017-11-11T06:50:01.423Z,18.7
2017-11-11T06:51:14.893Z,18.58
2017-11-11T06:52:28.309Z,18.69
2017-11-11T06:53:40.593Z,18.7
2017-11-11T06:54:54.042Z,18.7
2017-11-11T06:56:07.495Z,18.69
2017-11-11T06:57:21.553Z,18.6
2017-11-11T06:58:34.458Z,18.69
2017-11-11T06:59:48.440Z,18.72
2017-11-11T07:01:02.514Z,18.66
2017-11-11T07:02:16.587Z,18.69
2017-11-11T07:03:30.640Z,18.58
2017-11-11T07:04:44.100Z,18.75
2017-11-11T07:05:57.524Z,18.69
2017-11-11T07:07:11.616Z,18.63
2017-11-11T07:08:25.689Z,18.66
2017-11-11T07:09:39.744Z,18.6
2017-11-11T07:10:53.781Z,18.62
2017-11-11T07:12:07.804Z,18.63
2017-11-11T07:13:21.852Z,18.6
2017-11-11T07:14:35.902Z,18.58
2017-11-11T07:15:49.950Z,18.57
2017-11-11T07:17:03.371Z,18.63
2017-11-11T07:18:17.385Z,18.55
2017-11-11T07:19:30.829Z,18.63
2017-11-11T07:20:44.876Z,18.6
2017-11-11T07:21:58.913Z,18.6
2017-11-11T07:23:12.351Z,18.57
2017-11-11T07:24:26.368Z,18.63
2017-11-11T07:25:40.466Z,18.6
2017-11-11T07:26:53.331Z,18.54
2017-11-11T07:29:52.388Z,18.54
2017-11-11T07:31:06.414Z,18.52
2017-11-11T07:32:20.469Z,18.51
2017-11-11T07:33:33.296Z,18.47
2017-11-11T07:34:46.756Z,18.54
2017-11-11T07:36:00.841Z,18.45
2017-11-11T07:37:13.704Z,18.44
2017-11-11T07:38:27.731Z,18.44
2017-11-11T07:39:41.189Z,18.54
2017-11-11T07:40:55.258Z,18.5
2017-11-11T07:42:09.321Z,18.44
2017-11-11T07:43:23.363Z,18.47
2017-11-11T07:44:37.364Z,18.57
2017-11-11T07:46:17.668Z,18.57
2017-11-11T07:47:30.467Z,18.5
2017-11-11T07:48:44.537Z,18.55
2017-11-11T07:49:58.071Z,18.5
2017-11-11T07:51:12.083Z,18.5
2017-11-11T07:52:26.112Z,18.54
2017-11-11T07:53:39.734Z,18.55
2017-11-11T07:54:53.238Z,18.51
2017-11-11T07:56:06.720Z,18.51
2017-11-11T07:57:20.743Z,18.5
2017-11-11T07:58:34.769Z,18.6
2017-11-11T08:00:19.799Z,18.48
2017-11-11T08:01:33.827Z,18.55
2017-11-11T08:02:47.872Z,18.52
2017-11-11T08:04:01.302Z,18.6
2017-11-11T08:05:14.756Z,18.55
2017-11-11T08:06:28.754Z,18.55
2017-11-11T08:07:42.269Z,18.54
2017-11-11T08:08:56.265Z,18.58
2017-11-11T08:10:10.307Z,18.62
2017-11-11T08:11:24.347Z,18.6
2017-11-11T08:12:38.365Z,18.58
2017-11-11T08:13:51.860Z,18.54
2017-11-11T08:15:05.327Z,18.58
2017-11-11T08:16:18.241Z,18.58
2017-11-11T08:17:31.692Z,18.6
2017-11-11T08:18:45.152Z,18.6
2017-11-11T08:19:59.164Z,18.65
2017-11-11T08:21:13.262Z,18.58
2017-11-11T08:22:26.741Z,18.62
2017-11-11T08:25:25.202Z,18.63
2017-11-11T08:26:39.249Z,18.57
2017-11-11T08:27:52.086Z,18.63
2017-11-11T08:29:06.108Z,18.65
2017-11-11T08:30:20.121Z,18.62
2017-11-11T08:31:32.401Z,18.6
2017-11-11T08:32:46.459Z,18.62
2017-11-11T08:34:00.492Z,18.63
2017-11-11T08:35:14.741Z,18.6
2017-11-11T08:36:27.571Z,18.63
2017-11-11T08:37:41.639Z,18.66
2017-11-11T08:38:55.128Z,18.6
2017-11-11T08:40:08.600Z,18.69
2017-11-11T08:41:22.640Z,18.63
2017-11-11T08:42:36.103Z,18.72
2017-11-11T08:43:50.167Z,18.66
2017-11-11T08:45:03.043Z,18.75
2017-11-11T08:46:17.084Z,18.7
2017-11-11T08:47:30.547Z,18.73
2017-11-11T08:48:44.580Z,18.82
2017-11-11T08:49:58.636Z,18.7
2017-11-11T08:51:12.719Z,18.84
2017-11-11T08:52:26.759Z,18.81
2017-11-11T08:53:40.790Z,18.85
2017-11-11T08:54:54.865Z,18.87
2017-11-11T08:56:07.710Z,18.85
2017-11-11T08:57:21.182Z,18.78
2017-11-11T08:58:35.218Z,18.92
2017-11-11T08:59:48.690Z,18.9
2017-11-11T09:01:02.750Z,18.95
2017-11-11T09:02:16.809Z,19.08
2017-11-11T09:03:30.261Z,19.18
2017-11-11T09:04:44.351Z,19.22
2017-11-11T09:05:58.354Z,19.22
2017-11-11T09:07:11.255Z,19.26
2017-11-11T09:08:25.334Z,19.37
2017-11-11T09:09:38.797Z,19.36
2017-11-11T09:10:51.693Z,19.43
2017-11-11T09:12:05.731Z,19.47
2017-11-11T09:13:19.181Z,19.44
2017-11-11T09:14:33.469Z,19.58
2017-11-11T09:15:47.556Z,19.69
2017-11-11T09:17:01.625Z,19.73
2017-11-11T09:18:15.063Z,19.84
2017-11-11T09:19:28.502Z,19.98
2017-11-11T09:20:42.514Z,19.98
2017-11-11T09:21:56.524Z,20.08
2017-11-11T09:23:10.563Z,20.11
2017-11-11T09:24:24.642Z,20.08
2017-11-11T09:25:38.676Z,19.96
2017-11-11T09:26:52.730Z,20.11
2017-11-11T09:28:06.777Z,20.28
2017-11-11T09:29:20.206Z,20.24
2017-11-11T09:30:34.237Z,20.2
2017-11-11T09:31:48.277Z,20.28
2017-11-11T09:33:02.309Z,20.2
2017-11-11T09:34:16.543Z,20.16
2017-11-11T09:35:30.573Z,20.13
2017-11-11T09:36:44.611Z,19.94
2017-11-11T09:37:58.596Z,20.08
2017-11-11T09:39:12.583Z,20.18
2017-11-11T09:40:26.668Z,20.16
2017-11-11T09:41:40.655Z,20.21
2017-11-11T09:42:54.665Z,20.17
2017-11-11T09:44:08.176Z,20.21
2017-11-11T09:45:22.199Z,20.21
2017-11-11T09:46:36.356Z,20.32
2017-11-11T09:47:50.379Z,20.58
2017-11-11T09:49:04.411Z,20.67
2017-11-11T09:50:18.691Z,20.79
2017-11-11T09:51:31.555Z,20.91
2017-11-11T09:52:45.562Z,21.03
2017-11-11T09:53:59.588Z,21.31
2017-11-11T09:55:13.088Z,21.54
2017-11-11T09:56:26.528Z,21.58
2017-11-11T09:57:39.428Z,21.74
2017-11-11T09:58:53.482Z,21.58
2017-11-11T10:00:07.499Z,21.49
2017-11-11T10:01:21.717Z,21.34
2017-11-11T10:02:35.178Z,21.16
2017-11-11T10:03:49.476Z,20.99
2017-11-11T10:05:03.729Z,20.79
2017-11-11T10:06:17.769Z,20.61
2017-11-11T10:07:31.245Z,20.51
2017-11-11T10:08:45.258Z,20.29
2017-11-11T10:09:59.312Z,20.33
2017-11-11T10:11:13.337Z,20.26
2017-11-11T10:12:27.335Z,20.36
2017-11-11T10:13:41.384Z,20.47
2017-11-11T10:14:55.437Z,20.5
2017-11-11T10:16:09.499Z,20.33
2017-11-11T10:17:22.974Z,20.28
2017-11-11T10:18:36.455Z,20.26
2017-11-11T10:19:50.460Z,20.17
2017-11-11T10:21:04.498Z,20.1
2017-11-11T10:22:18.496Z,20.1
2017-11-11T10:23:31.956Z,20.14
2017-11-11T10:24:44.861Z,20.18
2017-11-11T10:25:58.901Z,20.2
2017-11-11T10:27:11.767Z,20.31
2017-11-11T10:28:25.788Z,20.41
2017-11-11T10:29:39.206Z,20.57
2017-11-11T10:30:52.618Z,20.48
2017-11-11T10:32:06.659Z,20.57
2017-11-11T10:33:20.703Z,20.54
2017-11-11T10:34:34.758Z,20.7
2017-11-11T10:35:48.821Z,20.76
2017-11-11T10:37:02.884Z,20.89
2017-11-11T10:38:16.889Z,21.07
2017-11-11T10:39:30.299Z,21.09
2017-11-11T10:40:43.764Z,21.03
2017-11-11T10:41:57.810Z,20.92
2017-11-11T10:43:11.825Z,20.79
2017-11-11T10:44:25.362Z,20.67
2017-11-11T10:45:38.985Z,20.58
2017-11-11T10:46:52.993Z,20.54
2017-11-11T10:48:07.065Z,20.41
2017-11-11T10:49:19.922Z,20.24
2017-11-11T10:50:35.375Z,20.16
2017-11-11T10:51:51.036Z,20.2
2017-11-11T10:53:05.077Z,20.11
2017-11-11T10:54:19.105Z,20.05
2017-11-11T10:55:32.520Z,20.24
2017-11-11T10:56:45.969Z,20.35
2017-11-11T10:57:59.458Z,20.51
2017-11-11T10:59:12.885Z,20.61
2017-11-11T11:00:26.309Z,20.5
2017-11-11T11:01:40.301Z,20.43
2017-11-11T11:02:54.340Z,20.29
2017-11-11T11:04:07.816Z,20.2
2017-11-11T11:05:21.231Z,20.16
2017-11-11T11:06:34.712Z,20.1
2017-11-11T11:07:48.742Z,19.98
2017-11-11T11:09:33.794Z,19.87
2017-11-11T11:10:47.804Z,19.77
2017-11-11T11:12:01.228Z,19.74
2017-11-11T11:13:13.502Z,19.77
2017-11-11T11:14:26.924Z,19.88
2017-11-11T11:15:40.410Z,19.84
2017-11-11T11:16:53.871Z,19.98
2017-11-11T11:18:07.286Z,20.02
2017-11-11T11:19:21.339Z,20.02
2017-11-11T11:20:34.202Z,20.05
2017-11-11T11:21:47.075Z,20.08
2017-11-11T11:23:01.158Z,20.02
2017-11-11T11:24:15.188Z,20.11
2017-11-11T11:25:29.236Z,20.06
2017-11-11T11:26:42.687Z,20.21
2017-11-11T11:27:56.749Z,20.31
2017-11-11T11:29:10.806Z,20.43
2017-11-11T11:30:24.271Z,20.59
2017-11-11T11:31:36.575Z,20.8
2017-11-11T11:32:50.044Z,21.01
2017-11-11T11:34:04.082Z,21.1
2017-11-11T11:35:18.124Z,20.99
2017-11-11T11:36:31.621Z,20.95
2017-11-11T11:37:45.664Z,20.89
2017-11-11T11:38:59.114Z,20.8
2017-11-11T11:40:13.129Z,20.98
2017-11-11T11:41:26.578Z,21.1
2017-11-11T11:42:40.628Z,21.37
2017-11-11T11:43:54.704Z,21.47
2017-11-11T11:45:08.686Z,21.54
2017-11-11T11:46:22.128Z,21.82
2017-11-11T11:47:36.182Z,21.99
2017-11-11T11:48:50.225Z,22.06
2017-11-11T11:50:03.693Z,22.02
2017-11-11T11:51:17.186Z,22.24
2017-11-11T11:52:30.614Z,22.42
2017-11-11T11:53:44.607Z,22.45
2017-11-11T11:54:58.684Z,22.57
2017-11-11T11:56:11.580Z,22.73
2017-11-11T11:57:25.018Z,22.7
2017-11-11T11:58:38.503Z,22.6
2017-11-11T11:59:51.956Z,22.42
2017-11-11T12:01:05.989Z,22.21
2017-11-11T12:02:20.045Z,22
2017-11-11T12:03:33.449Z,21.98
2017-11-11T12:04:46.905Z,22.07
2017-11-11T12:06:00.973Z,22.09
2017-11-11T12:07:15.038Z,22.28
2017-11-11T12:08:29.101Z,22.52
2017-11-11T12:09:43.166Z,22.67
2017-11-11T12:10:56.574Z,22.72
2017-11-11T12:12:10.687Z,22.51
2017-11-11T12:13:24.731Z,22.52
2017-11-11T12:14:38.746Z,22.37
2017-11-11T12:15:52.213Z,22.22
2017-11-11T12:17:06.286Z,22.15
2017-11-11T12:18:19.725Z,22.09
2017-11-11T12:19:32.609Z,22.25
2017-11-11T12:20:46.598Z,22.49
2017-11-11T12:22:00.662Z,22.68
2017-11-11T12:23:14.135Z,22.77
2017-11-11T12:24:27.020Z,22.85
2017-11-11T12:25:41.051Z,22.76
2017-11-11T12:26:55.088Z,22.82
2017-11-11T12:28:09.144Z,22.7
2017-11-11T12:29:23.190Z,22.86
2017-11-11T12:30:36.636Z,22.97
2017-11-11T12:31:50.707Z,22.68
2017-11-11T12:33:04.807Z,22.39
2017-11-11T12:34:18.835Z,21.98
2017-11-11T12:35:33.117Z,21.71
2017-11-11T12:36:46.576Z,21.72
2017-11-11T12:38:00.602Z,21.88
2017-11-11T12:39:14.109Z,22.06
2017-11-11T12:40:28.156Z,22.27
2017-11-11T12:41:41.822Z,22.07
2017-11-11T12:42:56.169Z,21.83
2017-11-11T12:44:10.177Z,21.86
2017-11-11T12:45:24.192Z,21.9
2017-11-11T12:46:38.244Z,22.06
2017-11-11T12:47:51.687Z,22.1
2017-11-11T12:49:04.553Z,22.07
2017-11-11T12:50:18.557Z,21.92
2017-11-11T12:51:30.828Z,21.74
2017-11-11T12:52:44.283Z,21.61
2017-11-11T12:53:57.776Z,21.54
2017-11-11T12:55:11.806Z,21.53
2017-11-11T12:56:25.787Z,21.56
2017-11-11T12:57:39.258Z,21.82
2017-11-11T12:58:53.268Z,22
2017-11-11T13:00:06.123Z,21.98
2017-11-11T13:01:20.372Z,22.02
2017-11-11T13:02:34.804Z,21.9
2017-11-11T13:03:48.294Z,21.99
2017-11-11T13:05:01.743Z,22.03
2017-11-11T13:06:15.765Z,21.94
2017-11-11T13:07:29.812Z,22.09
2017-11-11T13:08:43.838Z,22.22
2017-11-11T13:09:57.467Z,22.35
2017-11-11T13:11:11.531Z,22.21
2017-11-11T13:12:25.599Z,22.1
2017-11-11T13:13:39.074Z,21.94
2017-11-11T13:14:53.081Z,21.71
2017-11-11T13:16:06.534Z,21.65
2017-11-11T13:17:20.595Z,21.74
2017-11-11T13:18:34.057Z,21.72
2017-11-11T13:19:48.103Z,21.77
2017-11-11T13:21:02.115Z,22.06
2017-11-11T13:22:14.996Z,22.43
2017-11-11T13:23:28.434Z,22.7
2017-11-11T13:24:42.517Z,22.97
2017-11-11T13:25:56.607Z,23.19
2017-11-11T13:27:10.462Z,23.39
2017-11-11T13:28:36.033Z,23.5
2017-11-11T13:29:50.047Z,23.4
2017-11-11T13:31:03.477Z,22.98
2017-11-11T13:32:17.510Z,22.67
2017-11-11T13:33:31.596Z,22.42
2017-11-11T13:34:45.055Z,22.22
2017-11-11T13:35:59.133Z,22.05
2017-11-11T13:37:13.168Z,22
2017-11-11T13:38:27.174Z,22.09
2017-11-11T13:40:11.658Z,21.94
2017-11-11T13:41:25.763Z,21.77
2017-11-11T13:42:38.639Z,21.72
2017-11-11T13:43:52.113Z,21.77
2017-11-11T13:45:05.577Z,21.82
2017-11-11T13:46:19.036Z,22
2017-11-11T13:47:32.484Z,22.06
2017-11-11T13:48:45.918Z,22
2017-11-11T13:49:59.941Z,22
2017-11-11T13:51:13.362Z,21.94
2017-11-11T13:52:26.857Z,21.83
2017-11-11T13:53:40.292Z,21.86
2017-11-11T13:54:54.360Z,21.86
2017-11-11T13:56:07.844Z,22.1
2017-11-11T13:57:21.300Z,22.07
2017-11-11T13:58:35.354Z,21.92
2017-11-11T13:59:48.830Z,21.86
2017-11-11T14:01:02.588Z,21.79
2017-11-11T14:02:16.659Z,21.91
2017-11-11T14:03:30.088Z,21.98
2017-11-11T14:04:44.342Z,21.96
2017-11-11T14:05:58.392Z,22.07
2017-11-11T14:07:12.433Z,22.24
2017-11-11T14:08:26.442Z,22.39
2017-11-11T14:09:39.891Z,22.6
2017-11-11T14:10:53.365Z,23
2017-11-11T14:12:07.505Z,23.31
2017-11-11T14:13:21.554Z,23.5
2017-11-11T14:14:35.814Z,23.63
2017-11-11T14:15:49.822Z,23.58
2017-11-11T14:17:03.881Z,23.57
2017-11-11T14:18:17.924Z,23.65
2017-11-11T14:19:31.369Z,23.72
2017-11-11T14:20:45.416Z,23.57
2017-11-11T14:21:57.700Z,23.31
2017-11-11T14:23:11.790Z,23.01
2017-11-11T14:24:25.825Z,22.85
2017-11-11T14:25:39.294Z,22.8
2017-11-11T14:26:53.302Z,22.9
2017-11-11T14:28:07.322Z,22.76
2017-11-11T14:29:21.325Z,22.54
2017-11-11T14:30:35.386Z,22.33
2017-11-11T14:31:49.414Z,22.25
2017-11-11T14:33:03.446Z,22.1
2017-11-11T14:34:17.488Z,22
2017-11-11T14:35:30.361Z,21.75
2017-11-11T14:36:44.416Z,21.58
2017-11-11T14:37:58.484Z,21.46
2017-11-11T14:39:11.910Z,21.28
2017-11-11T14:40:25.335Z,21.22
2017-11-11T14:41:38.812Z,21.09
2017-11-11T14:42:52.874Z,20.99
2017-11-11T14:44:06.335Z,20.84
2017-11-11T14:45:20.453Z,20.62
2017-11-11T14:46:34.505Z,20.47
2017-11-11T14:47:48.585Z,20.47
2017-11-11T14:49:02.596Z,20.39
2017-11-11T14:50:16.041Z,20.43
2017-11-11T14:51:30.089Z,20.28
2017-11-11T14:52:44.105Z,20.18
2017-11-11T14:53:58.163Z,20.16
2017-11-11T14:55:12.174Z,20.06
2017-11-11T14:56:26.209Z,20.05
2017-11-11T14:57:40.443Z,20.08
2017-11-11T14:58:54.493Z,19.92
2017-11-11T15:00:07.644Z,19.96
2017-11-11T15:01:20.978Z,19.91
2017-11-11T15:02:33.771Z,20.01
2017-11-11T15:03:46.567Z,19.94
2017-11-11T15:04:59.954Z,20.01
2017-11-11T15:06:12.779Z,19.87
2017-11-11T15:07:26.051Z,19.84
2017-11-11T15:08:39.356Z,20.02
2017-11-11T15:09:52.706Z,20.06
2017-11-11T15:11:05.561Z,20.05
2017-11-11T15:12:18.344Z,19.98
2017-11-11T15:13:31.133Z,19.98
2017-11-11T15:14:44.506Z,20.13
2017-11-11T15:15:57.808Z,20.13
2017-11-11T15:17:10.615Z,20.24
2017-11-11T15:18:24.015Z,20.5
2017-11-11T15:19:37.381Z,20.54
2017-11-11T15:20:50.206Z,20.62
2017-11-11T15:22:03.518Z,20.72
2017-11-11T15:23:15.780Z,20.8
2017-11-11T15:24:29.069Z,20.76
2017-11-11T15:25:41.306Z,20.58
2017-11-11T15:26:54.108Z,20.26
2017-11-11T15:28:07.461Z,20.08
2017-11-11T15:29:19.189Z,20.08
2017-11-11T15:30:32.513Z,19.99
2017-11-11T15:31:45.812Z,19.81
2017-11-11T15:32:58.624Z,19.92
2017-11-11T15:34:11.430Z,19.94
2017-11-11T15:35:23.695Z,19.96
2017-11-11T15:36:36.451Z,19.99
2017-11-11T15:37:49.269Z,20.1
2017-11-11T15:39:02.625Z,20.28
2017-11-11T15:40:15.972Z,20.5
2017-11-11T15:41:28.455Z,20.59
2017-11-11T15:42:41.296Z,20.64
2017-11-11T15:43:53.541Z,20.61
2017-11-11T15:45:05.806Z,20.73
2017-11-11T15:46:18.033Z,20.92
2017-11-11T15:47:30.830Z,20.87
2017-11-11T15:48:44.189Z,20.8
2017-11-11T15:49:57.554Z,20.7
2017-11-11T15:51:08.763Z,20.57
2017-11-11T15:52:21.035Z,20.76
2017-11-11T15:53:34.355Z,20.95
2017-11-11T15:54:47.178Z,20.87
2017-11-11T15:56:00.543Z,20.73
2017-11-11T15:57:13.564Z,20.5